createdAt,value
2023-02-16T04:45:50.870Z,384.70
2023-02-16T04:48:17.562Z,388.23
2023-02-16T04:50:44.165Z,381.40
2023-02-16T04:53:10.802Z,384.77
2023-02-16T04:55:37.405Z,382.58
2023-02-16T04:58:04.054Z,381.45
2023-02-16T05:00:30.682Z,377.95
2023-02-16T05:02:57.507Z,376.45
2023-02-16T05:05:24.149Z,379.15
2023-02-16T05:07:50.757Z,378.55
2023-02-16T05:10:17.355Z,380.65
2023-02-16T05:13:02.506Z,380.55
2023-02-16T05:15:29.168Z,374.40
2023-02-16T05:17:55.835Z,379.45
2023-02-16T05:20:42.538Z,375.90
2023-02-16T05:23:09.175Z,371.75
2023-02-16T05:25:35.811Z,373.20
2023-02-16T05:28:02.447Z,377.20
2023-02-16T05:30:29.156Z,378.37
2023-02-16T05:32:56.078Z,378.20
2023-02-16T05:35:22.669Z,372.92
2023-02-16T05:37:49.270Z,374.58
2023-02-16T05:40:16.005Z,365.23
2023-02-16T05:42:42.647Z,366.50
2023-02-16T05:45:09.915Z,364.00
2023-02-16T05:47:36.534Z,371.95
2023-02-16T05:50:03.368Z,376.88
2023-02-16T05:52:29.964Z,373.10
2023-02-16T05:54:56.584Z,375.33
2023-02-16T05:57:23.265Z,379.05
2023-02-16T05:59:49.905Z,378.45
2023-02-16T06:02:16.568Z,380.98
2023-02-16T06:04:43.236Z,381.07
2023-02-16T06:07:09.870Z,378.08
2023-02-16T06:09:36.761Z,382.50
2023-02-16T06:12:03.578Z,387.88
2023-02-16T06:14:30.268Z,385.55
2023-02-16T06:16:58.720Z,386.75
2023-02-16T06:19:25.442Z,389.75
2023-02-16T06:21:52.147Z,389.70
2023-02-16T06:24:18.839Z,388.00
2023-02-16T06:26:45.609Z,388.48
2023-02-16T06:29:12.279Z,391.25
2023-02-16T06:31:39.080Z,396.38
2023-02-16T06:34:05.972Z,393.02
2023-02-16T06:36:33.938Z,389.93
2023-02-16T06:39:00.573Z,402.55
2023-02-16T06:41:39.903Z,400.77
2023-02-16T06:44:15.197Z,402.45
2023-02-16T06:46:43.726Z,407.92
2023-02-16T06:49:17.926Z,404.92
2023-02-16T06:51:45.329Z,400.95
2023-02-16T06:54:12.237Z,399.17
2023-02-16T06:56:38.917Z,393.55
2023-02-16T06:59:06.005Z,397.73
2023-02-16T07:01:32.615Z,394.95
2023-02-16T07:03:59.578Z,396.27
2023-02-16T07:06:29.169Z,402.73
2023-02-16T07:08:56.067Z,403.60
2023-02-16T07:11:23.215Z,409.58
2023-02-16T07:13:50.295Z,404.25
2023-02-16T07:16:17.228Z,410.48
2023-02-16T07:18:44.099Z,411.17
2023-02-16T07:21:10.835Z,416.83
2023-02-16T07:23:37.658Z,414.05
2023-02-16T07:26:04.503Z,420.67
2023-02-16T07:28:31.446Z,419.73
2023-02-16T07:30:58.162Z,417.58
2023-02-16T07:33:24.854Z,426.90
2023-02-16T07:35:51.700Z,418.83
2023-02-16T07:38:18.413Z,422.23
2023-02-16T07:40:45.092Z,425.40
2023-02-16T07:43:11.709Z,427.20
2023-02-16T07:45:38.519Z,427.63
2023-02-16T07:48:05.361Z,431.00
2023-02-16T07:50:31.986Z,424.98
2023-02-16T07:53:02.140Z,428.90
2023-02-16T07:55:29.058Z,439.23
2023-02-16T07:57:58.500Z,434.55
2023-02-16T08:00:25.344Z,427.75
2023-02-16T08:02:52.690Z,440.92
2023-02-16T08:05:19.476Z,435.38
2023-02-16T08:07:46.854Z,440.92
2023-02-16T08:10:14.713Z,441.73
2023-02-16T08:12:41.642Z,442.85
2023-02-16T08:15:09.555Z,447.27
2023-02-16T08:17:36.578Z,447.90
2023-02-16T08:20:05.346Z,443.98
2023-02-16T08:22:32.785Z,457.95
2023-02-16T08:25:02.490Z,455.38
2023-02-16T08:27:29.087Z,453.85
2023-02-16T08:29:55.768Z,460.60
2023-02-16T08:32:22.555Z,458.63
2023-02-16T08:34:49.287Z,460.53
2023-02-16T08:37:15.886Z,456.95
2023-02-16T08:39:42.665Z,467.02
2023-02-16T08:42:11.905Z,461.23
2023-02-16T08:44:39.847Z,461.90
2023-02-16T08:47:06.922Z,476.52
2023-02-16T08:49:33.577Z,470.35
2023-02-16T08:52:01.469Z,463.47
2023-02-16T08:54:30.466Z,507.63
2023-02-16T08:56:59.705Z,548.95
2023-02-16T08:59:28.759Z,496.40
2023-02-16T09:01:56.892Z,465.83
2023-02-16T09:04:25.813Z,470.70
2023-02-16T09:06:53.356Z,478.65
2023-02-16T09:09:20.436Z,475.75
2023-02-16T09:11:47.876Z,472.98
2023-02-16T09:14:16.130Z,478.85
2023-02-16T09:16:45.808Z,472.95
2023-02-16T09:19:14.961Z,475.70
2023-02-16T09:21:42.065Z,486.08
2023-02-16T09:24:11.410Z,488.55
2023-02-16T09:26:39.128Z,494.80
2023-02-16T09:29:07.174Z,502.90
2023-02-16T09:31:36.955Z,497.63
2023-02-16T09:34:14.049Z,505.95
2023-02-16T09:36:40.667Z,502.15
2023-02-16T09:39:08.011Z,512.47
2023-02-16T09:41:34.638Z,514.75
2023-02-16T09:44:10.135Z,524.25
2023-02-16T09:46:38.377Z,518.40
2023-02-16T09:49:05.216Z,520.28
2023-02-16T09:51:38.138Z,516.70
2023-02-16T09:54:26.438Z,519.55
2023-02-16T09:57:02.879Z,520.45
2023-02-16T09:59:56.263Z,525.90
2023-02-16T10:02:32.442Z,516.63
2023-02-16T10:05:14.373Z,518.97
2023-02-16T10:07:51.533Z,520.03
2023-02-16T10:10:25.131Z,524.17
2023-02-16T10:13:05.102Z,530.38
2023-02-16T10:15:34.708Z,525.63
2023-02-16T10:18:16.381Z,546.10
2023-02-16T10:20:49.145Z,530.10
2023-02-16T10:23:39.866Z,522.70
2023-02-16T10:26:35.174Z,525.33
2023-02-16T10:29:15.974Z,534.70
2023-02-16T10:32:15.290Z,524.38
2023-02-16T10:34:48.093Z,526.33
2023-02-16T10:37:56.191Z,529.42
2023-02-16T10:40:28.291Z,540.30
2023-02-16T10:43:20.851Z,570.53
2023-02-16T10:45:53.963Z,568.08
2023-02-16T10:48:22.804Z,582.63
2023-02-16T10:51:09.455Z,588.72
2023-02-16T10:53:55.808Z,597.40
2023-02-16T10:56:50.444Z,601.20
2023-02-16T10:59:21.956Z,611.10
2023-02-16T11:01:51.976Z,608.85
2023-02-16T11:04:57.054Z,626.13
2023-02-16T11:07:29.096Z,632.63
2023-02-16T11:09:58.357Z,636.45
2023-02-16T11:12:34.531Z,635.28
2023-02-16T11:15:24.757Z,643.40
2023-02-16T11:17:53.050Z,643.15
2023-02-16T11:20:28.720Z,646.38
2023-02-16T11:23:22.446Z,648.72
2023-02-16T11:26:00.933Z,649.22
2023-02-16T11:28:43.165Z,652.08
2023-02-16T11:31:09.910Z,657.77
2023-02-16T11:33:38.047Z,662.95
2023-02-16T11:36:20.250Z,666.20
2023-02-16T11:38:59.634Z,677.40
2023-02-16T11:41:27.422Z,671.30
2023-02-16T11:43:55.884Z,683.38
2023-02-16T11:46:24.742Z,683.80
2023-02-16T11:48:52.469Z,701.20
2023-02-16T11:51:34.239Z,710.75
2023-02-16T11:54:05.329Z,730.10
2023-02-16T11:56:36.229Z,750.33
2023-02-16T11:59:17.005Z,780.72
2023-02-16T12:02:08.530Z,788.88
2023-02-16T12:04:50.978Z,819.72
2023-02-16T12:07:47.417Z,837.78
2023-02-16T12:10:31.606Z,857.40
2023-02-16T12:13:11.186Z,877.20
2023-02-16T12:16:06.212Z,892.47
2023-02-16T12:18:50.233Z,905.87
2023-02-16T12:21:22.620Z,921.60
2023-02-16T12:23:58.351Z,937.28
2023-02-16T12:26:44.405Z,945.22
2023-02-16T12:29:38.013Z,960.65
2023-02-16T12:32:30.279Z,973.20
2023-02-16T12:35:28.646Z,977.78
2023-02-16T12:38:48.179Z,984.22
2023-02-16T12:41:23.388Z,980.15
2023-02-16T12:44:03.800Z,990.60
2023-02-16T12:46:40.839Z,987.00
2023-02-16T12:49:27.462Z,982.40
2023-02-16T12:51:57.802Z,984.88
2023-02-16T12:54:33.032Z,988.45
2023-02-16T12:57:15.787Z,979.42
2023-02-16T12:59:47.082Z,976.00
2023-02-16T13:02:33.304Z,974.60
2023-02-16T13:05:21.111Z,958.85
2023-02-16T13:07:51.922Z,950.25
2023-02-16T13:10:57.979Z,955.38
2023-02-16T13:13:27.051Z,948.30
2023-02-16T13:16:28.672Z,949.43
2023-02-16T13:18:57.195Z,941.77
2023-02-16T13:21:49.073Z,940.80
2023-02-16T13:24:31.377Z,907.95
2023-02-16T13:27:08.095Z,905.08
2023-02-16T13:29:54.527Z,892.15
2023-02-16T13:32:23.901Z,877.40
2023-02-16T13:35:00.396Z,872.85
2023-02-16T13:38:01.555Z,865.70
2023-02-16T13:41:07.740Z,848.83
2023-02-16T13:44:05.698Z,848.50
2023-02-16T13:46:37.086Z,845.28
2023-02-16T13:49:04.696Z,841.88
2023-02-16T13:51:43.998Z,847.67
2023-02-16T13:54:28.087Z,842.88
2023-02-16T13:56:54.895Z,844.38
2023-02-16T13:59:22.250Z,843.58
2023-02-16T14:01:50.602Z,846.33
2023-02-16T14:04:23.491Z,841.38
2023-02-16T14:07:08.402Z,831.97
2023-02-16T14:09:55.271Z,837.63
2023-02-16T14:12:36.770Z,850.25
2023-02-16T14:15:18.400Z,845.90
2023-02-16T14:17:45.862Z,855.75
2023-02-16T14:20:15.796Z,860.75
2023-02-16T14:22:45.491Z,859.83
2023-02-16T14:25:23.704Z,854.35
2023-02-16T14:28:03.127Z,864.53
2023-02-16T14:30:51.658Z,876.63
2023-02-16T14:33:37.593Z,875.47
2023-02-16T14:36:20.172Z,874.30
2023-02-16T14:38:51.952Z,878.00
2023-02-16T14:41:34.041Z,866.03
2023-02-16T14:44:06.680Z,866.80
2023-02-16T14:47:24.439Z,876.40
2023-02-16T14:50:03.495Z,869.42
2023-02-16T14:52:52.045Z,864.53
2023-02-16T14:55:27.077Z,872.35
2023-02-16T14:58:23.945Z,868.22
2023-02-16T15:00:55.988Z,868.33
2023-02-16T15:03:25.637Z,851.05
2023-02-16T15:05:59.313Z,861.03
2023-02-16T15:08:35.410Z,856.42
2023-02-16T15:11:12.916Z,862.55
2023-02-16T15:13:39.703Z,865.78
2023-02-16T15:16:07.404Z,865.58
2023-02-16T15:18:41.689Z,865.67
2023-02-16T15:21:18.758Z,855.72
2023-02-16T15:23:50.851Z,855.53
2023-02-16T15:26:27.131Z,857.33
2023-02-16T15:29:22.539Z,854.28
2023-02-16T15:31:49.803Z,854.97
2023-02-16T15:34:33.185Z,847.13
2023-02-16T15:37:02.260Z,845.45
2023-02-16T15:39:46.398Z,837.50
2023-02-16T15:42:27.550Z,834.17
2023-02-16T15:44:54.293Z,839.60
2023-02-16T15:47:24.098Z,834.40
2023-02-16T15:49:51.600Z,822.88
2023-02-16T15:52:31.832Z,821.63
2023-02-16T15:55:01.852Z,826.03
2023-02-16T15:57:38.339Z,826.67
2023-02-16T16:00:20.627Z,802.28
2023-02-16T16:02:54.275Z,818.45
2023-02-16T16:05:32.805Z,810.75
2023-02-16T16:08:01.566Z,799.63
2023-02-16T16:10:29.328Z,794.72
2023-02-16T16:13:01.449Z,793.95
2023-02-16T16:15:30.227Z,797.15
2023-02-16T16:18:00.948Z,795.95
2023-02-16T16:20:27.567Z,795.20
2023-02-16T16:23:17.458Z,794.60
2023-02-16T16:25:49.092Z,788.78
2023-02-16T16:28:27.655Z,792.35
2023-02-16T16:31:16.360Z,787.28
2023-02-16T16:33:56.948Z,789.15
2023-02-16T16:36:56.914Z,782.50
2023-02-16T16:39:35.734Z,792.42
2023-02-16T16:42:22.036Z,781.65
2023-02-16T16:44:57.457Z,785.78
2023-02-16T16:47:39.455Z,777.22
2023-02-16T16:50:14.362Z,790.10
2023-02-16T16:52:48.785Z,776.63
2023-02-16T16:55:27.230Z,775.95
2023-02-16T16:57:58.300Z,781.77
2023-02-16T17:00:28.897Z,763.65
2023-02-16T17:02:55.528Z,762.78
2023-02-16T17:05:22.213Z,761.25
2023-02-16T17:07:50.062Z,765.83
2023-02-16T17:10:18.824Z,765.45
2023-02-16T17:12:47.306Z,755.35
2023-02-16T17:15:24.621Z,767.05
2023-02-16T17:17:51.247Z,768.70
2023-02-16T17:20:18.074Z,773.07
2023-02-16T17:22:44.795Z,758.28
2023-02-16T17:25:11.482Z,759.35
2023-02-16T17:27:38.150Z,762.15
2023-02-16T17:30:05.818Z,754.72
2023-02-16T17:32:32.636Z,756.60
2023-02-16T17:34:59.343Z,757.88
2023-02-16T17:37:26.448Z,759.05
2023-02-16T17:39:53.069Z,757.10
2023-02-16T17:42:19.690Z,744.63
2023-02-16T17:44:46.299Z,748.87
2023-02-16T17:47:16.809Z,751.35
2023-02-16T17:49:43.464Z,744.38
2023-02-16T17:52:13.709Z,742.45
2023-02-16T17:54:40.326Z,741.27
2023-02-16T17:57:06.970Z,742.07
2023-02-16T17:59:34.307Z,741.83
2023-02-16T18:02:00.954Z,744.77
2023-02-16T18:04:27.601Z,739.25
2023-02-16T18:06:54.228Z,743.15
2023-02-16T18:09:24.343Z,727.05
2023-02-16T18:11:51.469Z,734.90
2023-02-16T18:14:18.196Z,735.78
2023-02-16T18:16:44.858Z,731.05
2023-02-16T18:19:14.816Z,734.20
2023-02-16T18:21:41.664Z,737.42
2023-02-16T18:24:08.452Z,734.92
2023-02-16T18:26:35.058Z,736.97
2023-02-16T18:29:01.731Z,738.27
2023-02-16T18:31:28.473Z,728.97
2023-02-16T18:33:55.164Z,735.05
2023-02-16T18:36:21.819Z,733.53
2023-02-16T18:38:48.571Z,727.33
2023-02-16T18:41:15.263Z,729.90
2023-02-16T18:43:41.885Z,722.27
2023-02-16T18:46:09.636Z,723.45
2023-02-16T18:48:36.538Z,733.53
2023-02-16T18:51:05.448Z,724.20
2023-02-16T18:53:32.104Z,729.10
2023-02-16T18:55:58.854Z,733.65
2023-02-16T18:58:25.688Z,727.88
2023-02-16T19:00:52.328Z,733.38
2023-02-16T19:03:18.971Z,726.13
2023-02-16T19:05:45.716Z,727.78
2023-02-16T19:08:12.470Z,726.17
2023-02-16T19:10:39.191Z,721.47
2023-02-16T19:13:07.058Z,729.85
2023-02-16T19:15:35.183Z,725.20
2023-02-16T19:18:02.038Z,724.38
2023-02-16T19:20:29.581Z,724.95
2023-02-16T19:22:56.255Z,720.00
2023-02-16T19:25:23.728Z,716.65
2023-02-16T19:27:50.390Z,727.28
2023-02-16T19:30:17.112Z,720.28
2023-02-16T19:32:43.802Z,702.38
2023-02-16T19:35:11.370Z,715.42
2023-02-16T19:37:38.038Z,720.77
2023-02-16T19:40:06.893Z,721.83
2023-02-16T19:42:33.539Z,720.40
2023-02-16T19:45:00.231Z,719.95
2023-02-16T19:47:26.890Z,722.30
2023-02-16T19:49:53.529Z,721.83
2023-02-16T19:52:20.139Z,695.75
2023-02-16T19:54:46.815Z,698.05
2023-02-16T19:57:13.402Z,717.92
2023-02-16T19:59:40.106Z,711.35
2023-02-16T20:02:07.348Z,714.42
2023-02-16T20:04:34.074Z,708.33
2023-02-16T20:07:00.875Z,718.03
2023-02-16T20:09:27.985Z,694.10
2023-02-16T20:11:54.570Z,713.35
2023-02-16T20:14:21.167Z,691.88
2023-02-16T20:16:49.971Z,712.25
2023-02-16T20:19:16.929Z,712.33
2023-02-16T20:21:46.120Z,713.72
2023-02-16T20:24:13.954Z,707.33
2023-02-16T20:26:44.438Z,695.60
2023-02-16T20:29:13.138Z,698.78
2023-02-16T20:31:52.652Z,688.97
2023-02-16T20:34:19.549Z,699.47
2023-02-16T20:36:47.382Z,714.93
2023-02-16T20:39:14.659Z,709.13
2023-02-16T20:41:41.733Z,697.08
2023-02-16T20:44:08.975Z,687.45
2023-02-16T20:46:36.401Z,742.50
2023-02-16T20:49:04.457Z,684.70
2023-02-16T20:51:31.601Z,682.88
2023-02-16T20:54:02.021Z,674.97
2023-02-16T20:56:29.453Z,679.92
2023-02-16T20:58:57.072Z,674.90
2023-02-16T21:01:29.712Z,674.42
2023-02-16T21:03:57.954Z,690.42
2023-02-16T21:06:25.754Z,689.47
2023-02-16T21:08:52.649Z,688.30
2023-02-16T21:11:19.681Z,696.78
2023-02-16T21:13:46.815Z,697.40
2023-02-16T21:16:16.539Z,694.08
2023-02-16T21:18:43.568Z,700.85
2023-02-16T21:21:15.297Z,686.03
2023-02-16T21:23:43.565Z,689.75
2023-02-16T21:26:10.208Z,679.83
2023-02-16T21:28:36.906Z,684.63
2023-02-16T21:31:24.677Z,693.47
2023-02-16T21:33:52.307Z,671.57
2023-02-16T21:36:22.573Z,676.33
2023-02-16T21:38:49.686Z,679.13
2023-02-16T21:41:26.048Z,674.90
2023-02-16T21:43:58.564Z,683.15
2023-02-16T21:46:25.419Z,677.20
2023-02-16T21:48:52.091Z,674.45
2023-02-16T21:51:25.352Z,671.65
2023-02-16T21:53:53.294Z,675.05
2023-02-16T21:56:27.563Z,665.10
2023-02-16T21:58:54.197Z,674.63
2023-02-16T22:01:23.502Z,661.38
2023-02-16T22:03:55.803Z,669.80
2023-02-16T22:06:25.146Z,674.40
2023-02-16T22:08:52.328Z,670.42
2023-02-16T22:11:19.264Z,670.40
2023-02-16T22:13:46.096Z,683.63
2023-02-16T22:16:17.848Z,715.50
2023-02-16T22:18:44.893Z,724.22
2023-02-16T22:21:12.284Z,736.85
2023-02-16T22:23:39.625Z,740.07
2023-02-16T22:26:07.732Z,744.10
2023-02-16T22:28:35.998Z,744.13
2023-02-16T22:31:07.469Z,745.93
2023-02-16T22:33:34.657Z,748.90
2023-02-16T22:36:09.987Z,741.97
2023-02-16T22:38:36.607Z,736.58
2023-02-16T22:41:06.973Z,736.40
2023-02-16T22:43:34.181Z,728.08
2023-02-16T22:46:06.199Z,726.03
2023-02-16T22:48:33.058Z,714.53
2023-02-16T22:51:00.734Z,717.25
2023-02-16T22:53:27.413Z,709.45
2023-02-16T22:55:54.627Z,688.70
2023-02-16T22:58:21.788Z,695.15
2023-02-16T23:00:49.891Z,689.90
2023-02-16T23:03:16.741Z,681.38
2023-02-16T23:05:43.551Z,695.67
2023-02-16T23:08:11.013Z,685.70
2023-02-16T23:10:39.359Z,695.13
2023-02-16T23:13:08.212Z,696.25
2023-02-16T23:15:35.423Z,690.63
2023-02-16T23:18:02.323Z,692.90
2023-02-16T23:20:29.126Z,682.13
2023-02-16T23:22:55.752Z,682.33
2023-02-16T23:25:34.326Z,670.88
2023-02-16T23:28:02.772Z,673.67
2023-02-16T23:30:30.312Z,681.38
2023-02-16T23:32:57.497Z,677.70
2023-02-16T23:35:24.198Z,680.75
2023-02-16T23:37:50.789Z,678.50
2023-02-16T23:40:17.516Z,688.78
2023-02-16T23:42:44.351Z,673.70
2023-02-16T23:45:10.954Z,667.55
2023-02-16T23:47:37.556Z,674.45
2023-02-16T23:50:04.509Z,675.00
2023-02-16T23:52:31.136Z,670.88
2023-02-16T23:54:57.825Z,667.47
2023-02-16T23:57:24.457Z,675.53
2023-02-16T23:59:51.537Z,671.53
